Nieuw Amsterdam — PBWQ — position and weather

sailwx.info

Track history (hours):
 
Tides and Currents Weather Stations Pressure Air Temp Water Temp Dewpoint Dewpoint Depression Visibility Wind Speed Wind Dir Waves Ship Positions

Nieuw Amsterdam

Last reported at 2020-Jan-28 17:58 UTC. Time now 2020-Jan-28 20:52 UTC.
Position N 18°20' W 064°57'.

Length 285 m; draft 8 m.

Type: Passenger vessel. MMSI: 246648000.

Date/timePositionNaut miles runAvg speedWind from/ knotsBaromVisibWave heightAir tempDewpointWater temp
2020-Jan-28 17:58N 18°20' W 064°57'5 1.1
2020-Jan-28 14:00N 18°17' W 065°01'611.4
2020-Jan-28 13:28N 18°19' W 065°07'2911.6
2020-Jan-28 11:01N 18°36' W 065°31'  
2020-Jan-26 05:30N 26°11' W 079°34'30 7.5
2020-Jan-26 01:28N 26°05' W 080°07'0 0.0
2020-Jan-26 00:58N 26°05' W 080°07'0 0.0
2020-Jan-25 22:28N 26°05' W 080°07'0 0.0
2020-Jan-25 18:28N 26°05' W 080°07'0 0.0
2020-Jan-25 17:58N 26°05' W 080°07'0 0.0
2020-Jan-25 17:28N 26°05' W 080°07'0 0.0
2020-Jan-25 15:58N 26°05' W 080°07'0 0.0
2020-Jan-25 14:58N 26°05' W 080°07'0 0.0
2020-Jan-25 13:28N 26°05' W 080°07'0 0.0
2020-Jan-25 12:28N 26°05' W 080°07'0 0.0
2020-Jan-25 11:58N 26°05' W 080°07'72136.1
2020-Jan-25 11:26N 26°09' W 078°47'5716.7
2020-Jan-25 08:00N 26°08' W 079°50'612.3
2020-Jan-25 07:30N 26°08' W 079°43'  
2020-Jan-23 02:00N 19°06' W 066°24'202 9.0 180 / 281015.827.0 26.0 31.0
2020-Jan-22 03:38N 18°01' W 063°03'0 0.0
2020-Jan-21 23:56N 18°01' W 063°03'0 0.0
2020-Jan-21 20:14N 18°01' W 063°03'  
2020-Jan-19 01:00N 26°13' W 079°20'816.6
2020-Jan-19 00:31N 26°11' W 079°29'3513.9
2020-Jan-18 22:00N 26°05' W 080°07'0 0.2
2020-Jan-18 21:28N 26°05' W 080°07'0 0.0
2020-Jan-18 20:28N 26°05' W 080°07'0 0.0
2020-Jan-18 19:28N 26°05' W 080°07'0 0.0
2020-Jan-18 18:01N 26°05' W 080°07'  
Track history (hours):
 
Tides and Currents Weather Stations Pressure Air Temp Water Temp Dewpoint Dewpoint Depression Visibility Wind Speed Wind Dir Waves Ship Positions

Nieuw Amsterdam

Last reported at 2020-Jan-28 17:58 UTC. Time now 2020-Jan-28 20:52 UTC.
Position N 18°20' W 064°57'.

Length 285 m; draft 8 m.

Type: Passenger vessel. MMSI: 246648000.

Date/timePositionNaut miles runAvg speedWind from/ knotsBaromVisibWave heightAir tempDewpointWater temp
2020-Jan-28 17:58N 18°20' W 064°57'5 1.1
2020-Jan-28 14:00N 18°17' W 065°01'611.4
2020-Jan-28 13:28N 18°19' W 065°07'2911.6
2020-Jan-28 11:01N 18°36' W 065°31'  
2020-Jan-26 05:30N 26°11' W 079°34'30 7.5
2020-Jan-26 01:28N 26°05' W 080°07'0 0.0
2020-Jan-26 00:58N 26°05' W 080°07'0 0.0
2020-Jan-25 22:28N 26°05' W 080°07'0 0.0
2020-Jan-25 18:28N 26°05' W 080°07'0 0.0
2020-Jan-25 17:58N 26°05' W 080°07'0 0.0
2020-Jan-25 17:28N 26°05' W 080°07'0 0.0
2020-Jan-25 15:58N 26°05' W 080°07'0 0.0
2020-Jan-25 14:58N 26°05' W 080°07'0 0.0
2020-Jan-25 13:28N 26°05' W 080°07'0 0.0
2020-Jan-25 12:28N 26°05' W 080°07'0 0.0
2020-Jan-25 11:58N 26°05' W 080°07'72136.1
2020-Jan-25 11:26N 26°09' W 078°47'5716.7
2020-Jan-25 08:00N 26°08' W 079°50'612.3
2020-Jan-25 07:30N 26°08' W 079°43'  
2020-Jan-23 02:00N 19°06' W 066°24'202 9.0 180 / 281015.827.0 26.0 31.0
2020-Jan-22 03:38N 18°01' W 063°03'0 0.0
2020-Jan-21 23:56N 18°01' W 063°03'0 0.0
2020-Jan-21 20:14N 18°01' W 063°03'  
2020-Jan-19 01:00N 26°13' W 079°20'816.6
2020-Jan-19 00:31N 26°11' W 079°29'3513.9
2020-Jan-18 22:00N 26°05' W 080°07'0 0.2
2020-Jan-18 21:28N 26°05' W 080°07'0 0.0
2020-Jan-18 20:28N 26°05' W 080°07'0 0.0
2020-Jan-18 19:28N 26°05' W 080°07'0 0.0
2020-Jan-18 18:01N 26°05' W 080°07'  

Dump ship's entire track history